createdAt,value
2022-10-09T00:01:34.155Z,7.52
2022-10-09T00:04:02.341Z,7.54
2022-10-09T00:06:32.718Z,7.45
2022-10-09T00:09:02.287Z,7.46
2022-10-09T00:11:33.129Z,7.44
2022-10-09T00:14:03.774Z,7.36
2022-10-09T00:16:32.337Z,7.33
2022-10-09T00:19:00.715Z,7.49
2022-10-09T00:21:31.553Z,7.56
2022-10-09T00:24:01.943Z,7.57
2022-10-09T00:26:30.773Z,7.58
2022-10-09T00:29:00.659Z,7.49
2022-10-09T00:31:30.268Z,7.12
2022-10-09T00:33:58.745Z,7.15
2022-10-09T00:36:28.016Z,7.18
2022-10-09T00:38:56.382Z,7.00
2022-10-09T00:41:26.884Z,6.61
2022-10-09T00:43:58.792Z,6.51
2022-10-09T00:46:36.529Z,6.58
2022-10-09T00:49:11.854Z,6.62
2022-10-09T00:51:40.505Z,6.49
2022-10-09T00:54:11.555Z,6.32
2022-10-09T00:56:39.883Z,6.25
2022-10-09T00:59:08.644Z,6.14
2022-10-09T01:01:40.350Z,6.10
2022-10-09T01:04:08.862Z,6.36
2022-10-09T01:06:47.852Z,6.60
2022-10-09T03:02:14.169Z,6.29
2022-10-09T03:04:42.501Z,6.51
2022-10-09T03:07:10.815Z,6.56
2022-10-09T03:09:39.372Z,6.62
2022-10-09T03:12:07.492Z,6.69
2022-10-09T03:14:35.742Z,6.62
2022-10-09T04:01:03.212Z,5.94
2022-10-09T04:03:31.457Z,5.86
2022-10-09T04:05:59.229Z,5.70
2022-10-09T04:08:27.757Z,5.43
2022-10-09T04:10:58.483Z,5.49
2022-10-09T04:13:26.416Z,5.55
2022-10-09T04:53:51.645Z,6.07
2022-10-09T05:39:58.305Z,5.95
2022-10-09T05:45:17.944Z,5.98
2022-10-09T05:47:46.740Z,6.06
2022-10-09T05:50:20.688Z,6.06
2022-10-09T05:52:54.892Z,6.01
2022-10-09T05:55:48.952Z,6.05
2022-10-09T05:58:17.542Z,6.07
2022-10-09T06:00:54.232Z,6.17
2022-10-09T06:03:24.066Z,6.22
2022-10-09T06:09:04.257Z,6.31
2022-10-09T06:14:22.357Z,6.60
2022-10-09T06:16:52.561Z,6.71
2022-10-09T06:19:21.793Z,6.71
2022-10-09T06:21:53.882Z,6.82
2022-10-09T06:24:32.534Z,6.73
2022-10-09T06:27:02.819Z,6.83
2022-10-09T06:29:35.889Z,7.02
2022-10-09T06:32:17.203Z,7.22
2022-10-09T06:34:45.410Z,7.45
2022-10-09T06:37:16.678Z,7.71
2022-10-09T06:39:50.144Z,7.21
2022-10-09T06:42:20.323Z,7.54
2022-10-09T06:44:57.580Z,7.87
2022-10-09T06:47:27.665Z,8.10
2022-10-09T06:50:01.428Z,7.98
2022-10-09T06:52:50.852Z,8.07
2022-10-09T06:55:28.733Z,8.53
2022-10-09T06:58:11.218Z,9.04
2022-10-09T07:00:44.170Z,8.93
2022-10-09T07:03:29.282Z,9.18
2022-10-09T07:08:54.627Z,9.16
2022-10-09T07:11:34.757Z,9.45
2022-10-09T07:14:07.032Z,9.72
2022-10-09T07:16:38.404Z,9.87
2022-10-09T07:19:21.068Z,9.90
2022-10-09T07:21:56.468Z,9.96
2022-10-09T07:24:26.954Z,10.18
2022-10-09T07:26:59.695Z,10.15
2022-10-09T07:32:32.530Z,10.40
2022-10-09T07:35:05.532Z,10.78
2022-10-09T07:40:29.186Z,11.12
2022-10-09T07:43:34.121Z,11.33
2022-10-09T07:53:32.567Z,11.61
2022-10-09T07:56:07.039Z,11.98
2022-10-09T07:58:51.728Z,12.22
2022-10-09T08:04:32.126Z,12.52
2022-10-09T08:07:18.750Z,12.70
2022-10-09T08:10:03.804Z,12.84
2022-10-09T08:13:09.778Z,12.68
2022-10-09T08:15:47.589Z,12.77
2022-10-09T08:21:46.977Z,12.36
2022-10-09T08:24:29.769Z,12.25
2022-10-09T08:27:01.517Z,12.34
2022-10-09T08:29:57.164Z,12.36
2022-10-09T08:33:01.660Z,12.68
2022-10-09T08:39:26.291Z,12.66
2022-10-09T08:48:50.571Z,13.04
2022-10-09T08:55:07.057Z,13.37
2022-10-09T08:58:32.871Z,13.45
2022-10-09T09:02:17.096Z,13.50
2022-10-09T09:05:02.523Z,13.57
2022-10-09T09:07:39.632Z,13.76
2022-10-09T09:10:15.211Z,14.01
2022-10-09T09:12:55.299Z,14.30
2022-10-09T09:15:36.539Z,14.93
2022-10-09T09:18:15.847Z,15.89
2022-10-09T09:20:52.482Z,16.36
2022-10-09T09:23:26.690Z,16.53
2022-10-09T09:25:54.661Z,16.72
2022-10-09T09:28:26.377Z,16.97
2022-10-09T09:30:58.452Z,17.43
2022-10-09T09:33:39.020Z,17.66
2022-10-09T09:36:17.958Z,18.50
2022-10-09T09:39:24.890Z,19.05
2022-10-09T09:41:34.565Z,18.75
2022-10-09T09:44:03.058Z,18.28
2022-10-09T09:46:33.555Z,18.39
2022-10-09T09:49:04.719Z,18.92
2022-10-09T09:51:37.419Z,18.97
2022-10-09T09:54:08.886Z,19.70
2022-10-09T09:57:10.348Z,20.29
2022-10-09T09:59:34.778Z,20.76
2022-10-09T10:02:11.532Z,21.91
2022-10-09T10:04:49.931Z,21.72
2022-10-09T10:07:30.653Z,22.21
2022-10-09T10:10:14.436Z,22.14
2022-10-09T10:12:43.428Z,22.10
2022-10-09T10:15:21.753Z,22.70
2022-10-09T10:17:51.618Z,21.88
2022-10-09T10:20:19.950Z,21.28
2022-10-09T10:22:53.942Z,21.17
2022-10-09T10:25:25.703Z,21.33
2022-10-09T10:27:59.263Z,22.24
2022-10-09T10:30:27.379Z,21.80
2022-10-09T10:33:01.782Z,21.66
2022-10-09T10:35:33.499Z,22.48
2022-10-09T10:38:08.849Z,22.62
2022-10-09T10:40:39.606Z,23.04
2022-10-09T10:43:30.748Z,23.72
2022-10-09T10:46:07.511Z,23.13
2022-10-09T10:48:40.436Z,22.76
2022-10-09T10:51:30.165Z,22.50
2022-10-09T10:54:11.295Z,23.24
2022-10-09T10:56:43.278Z,23.05
2022-10-09T10:59:29.599Z,24.25
2022-10-09T11:02:48.732Z,24.33
2022-10-09T11:05:27.132Z,23.62
2022-10-09T11:08:09.935Z,23.31
2022-10-09T11:10:52.145Z,22.65
2022-10-09T11:13:25.020Z,23.30
2022-10-09T11:16:02.528Z,23.59
2022-10-09T11:18:54.177Z,24.56
2022-10-09T11:21:37.058Z,24.23
2022-10-09T11:24:27.022Z,25.02
2022-10-09T11:27:03.630Z,24.54
2022-10-09T11:29:38.466Z,24.94
2022-10-09T11:32:13.746Z,25.36
2022-10-09T11:34:48.228Z,27.10
2022-10-09T11:37:22.523Z,26.15
2022-10-09T11:39:50.919Z,24.81
2022-10-09T11:42:25.021Z,24.43
2022-10-09T11:45:05.496Z,24.77
2022-10-09T11:47:40.608Z,24.33
2022-10-09T11:50:21.069Z,25.37
2022-10-09T11:52:55.086Z,25.05
2022-10-09T11:55:27.008Z,24.82
2022-10-09T11:57:56.832Z,24.94
2022-10-09T12:00:33.944Z,25.03
2022-10-09T12:03:04.515Z,24.49
2022-10-09T12:05:42.992Z,23.99
2022-10-09T12:08:18.286Z,24.43
2022-10-09T12:10:54.416Z,25.34
2022-10-09T12:13:42.858Z,24.80
2022-10-09T12:16:29.677Z,24.82
2022-10-09T12:19:00.531Z,23.88
2022-10-09T12:21:35.616Z,23.42
2022-10-09T12:24:04.500Z,24.34
2022-10-09T12:26:33.645Z,25.26
2022-10-09T12:29:06.098Z,25.91
2022-10-09T12:31:39.519Z,24.81
2022-10-09T12:34:19.116Z,25.64
2022-10-09T12:36:47.464Z,25.78
2022-10-09T12:39:20.599Z,26.81
2022-10-09T12:41:52.569Z,25.68
2022-10-09T12:44:30.340Z,25.84
2022-10-09T12:47:03.261Z,25.77
2022-10-09T12:49:32.968Z,25.22
2022-10-09T12:52:03.052Z,24.79
2022-10-09T12:54:34.332Z,27.11
2022-10-09T12:57:03.767Z,28.39
2022-10-09T12:59:35.654Z,27.07
2022-10-09T13:02:04.917Z,26.90
2022-10-09T13:04:35.421Z,26.55
2022-10-09T13:07:08.412Z,27.17
2022-10-09T13:09:38.775Z,25.55
2022-10-09T13:12:11.008Z,24.95
2022-10-09T13:14:46.629Z,25.74
2022-10-09T13:17:27.043Z,25.55
2022-10-09T13:19:57.611Z,26.20
2022-10-09T13:22:29.046Z,26.05
2022-10-09T13:25:00.699Z,27.13
2022-10-09T13:27:32.503Z,26.58
2022-10-09T13:30:03.070Z,27.31
2022-10-09T13:32:31.469Z,27.89
2022-10-09T13:34:59.463Z,28.04
2022-10-09T13:37:30.622Z,27.48
2022-10-09T13:40:01.316Z,26.61
2022-10-09T13:42:33.784Z,27.44
2022-10-09T13:45:03.841Z,28.64
2022-10-09T13:47:32.389Z,27.35
2022-10-09T13:50:00.561Z,26.39
2022-10-09T13:52:29.072Z,25.57
2022-10-09T13:54:57.622Z,25.30
2022-10-09T13:57:25.877Z,25.56
2022-10-09T13:59:54.422Z,26.74
2022-10-09T14:02:24.282Z,26.34
2022-10-09T14:04:52.445Z,26.71
2022-10-09T14:07:20.642Z,27.43
2022-10-09T14:09:51.515Z,27.40
2022-10-09T14:12:19.748Z,28.06
2022-10-09T14:14:48.081Z,26.85
2022-10-09T14:17:16.705Z,26.14
2022-10-09T14:19:46.012Z,26.25
2022-10-09T14:22:14.668Z,27.64
2022-10-09T14:24:42.732Z,27.05
2022-10-09T14:27:10.590Z,26.76
2022-10-09T14:29:38.722Z,25.97
2022-10-09T14:32:08.645Z,25.92
2022-10-09T14:34:36.833Z,26.07
2022-10-09T14:37:18.479Z,26.01
2022-10-09T14:39:53.613Z,27.76
2022-10-09T14:42:21.490Z,26.90
2022-10-09T14:44:49.370Z,27.09
2022-10-09T14:47:17.305Z,26.06
2022-10-09T14:49:45.549Z,24.57
2022-10-09T14:52:14.726Z,24.13
2022-10-09T14:54:42.452Z,23.48
2022-10-09T14:57:10.312Z,23.78
2022-10-09T14:59:38.089Z,24.07
2022-10-09T15:02:07.169Z,23.28
2022-10-09T15:04:35.931Z,24.38
2022-10-09T15:07:03.835Z,24.80
2022-10-09T15:09:33.001Z,25.36
2022-10-09T15:12:01.094Z,25.25
2022-10-09T15:14:29.086Z,24.77
2022-10-09T15:16:56.945Z,24.93
2022-10-09T15:19:33.573Z,24.93
2022-10-09T15:22:01.520Z,24.75
2022-10-09T15:24:29.542Z,23.14
2022-10-09T15:26:58.946Z,23.27
2022-10-09T15:29:26.804Z,22.74
2022-10-09T15:31:54.967Z,22.26
2022-10-09T15:34:22.759Z,21.81
2022-10-09T15:36:52.684Z,22.60
2022-10-09T15:39:22.473Z,22.95
2022-10-09T15:41:53.476Z,22.54
2022-10-09T15:44:22.733Z,22.45
2022-10-09T15:46:51.159Z,22.25
2022-10-09T15:49:19.128Z,22.34
2022-10-09T15:51:46.973Z,22.72
2022-10-09T15:54:15.470Z,21.98
2022-10-09T15:56:43.479Z,21.44
2022-10-09T15:59:13.498Z,21.28
2022-10-09T16:01:42.861Z,21.14
2022-10-09T16:04:11.006Z,21.17
2022-10-09T16:06:40.474Z,21.18
2022-10-09T16:09:08.743Z,20.96
2022-10-09T16:11:36.716Z,20.70
2022-10-09T16:14:05.029Z,20.05
2022-10-09T16:16:32.781Z,19.46
2022-10-09T16:19:03.500Z,19.32
2022-10-09T16:21:32.905Z,19.28
2022-10-09T16:24:01.697Z,19.25
2022-10-09T16:26:30.416Z,18.77
2022-10-09T16:29:00.230Z,18.25
2022-10-09T16:31:30.415Z,17.84
2022-10-09T16:33:59.133Z,17.67
2022-10-09T16:36:29.358Z,17.34
2022-10-09T16:38:58.442Z,16.98
2022-10-09T16:41:26.870Z,16.38
2022-10-09T16:43:57.865Z,15.92
2022-10-09T16:46:29.473Z,15.72
2022-10-09T16:48:58.522Z,15.51
2022-10-09T16:51:30.119Z,15.40
2022-10-09T16:54:00.408Z,15.20
2022-10-09T16:56:32.971Z,15.07
2022-10-09T16:59:03.991Z,15.05
2022-10-09T17:01:32.797Z,15.00
2022-10-09T17:04:01.379Z,14.95
2022-10-09T17:06:32.633Z,14.84
2022-10-09T17:09:01.048Z,14.80
2022-10-09T17:11:30.792Z,14.76
2022-10-09T17:14:00.318Z,14.71
2022-10-09T17:16:31.226Z,14.59
2022-10-09T17:18:59.403Z,14.53
2022-10-09T17:21:32.838Z,14.46
2022-10-09T17:24:05.288Z,14.34
2022-10-09T17:26:33.220Z,14.22
2022-10-09T17:29:02.066Z,14.16
2022-10-09T17:31:31.216Z,14.11
2022-10-09T17:34:01.230Z,14.02
2022-10-09T17:36:31.425Z,13.87
2022-10-09T17:38:59.709Z,13.78
2022-10-09T17:41:30.788Z,13.74
2022-10-09T17:43:59.220Z,13.76
2022-10-09T17:46:28.658Z,13.73
2022-10-09T17:48:58.308Z,13.75
2022-10-09T17:51:29.493Z,13.64
2022-10-09T17:54:00.808Z,13.60
2022-10-09T17:56:32.619Z,13.58
2022-10-09T17:59:01.404Z,13.43
2022-10-09T18:01:32.289Z,13.34
2022-10-09T18:04:01.601Z,13.15
2022-10-09T18:06:33.097Z,13.13
2022-10-09T18:09:01.170Z,13.12
2022-10-09T18:11:31.500Z,13.04
2022-10-09T18:13:59.508Z,13.04
2022-10-09T18:16:36.867Z,12.94
2022-10-09T18:19:07.976Z,12.88
2022-10-09T18:21:36.504Z,12.82
2022-10-09T18:24:04.735Z,12.71
2022-10-09T18:26:35.069Z,12.65
2022-10-09T18:29:04.059Z,12.58
2022-10-09T18:31:32.762Z,12.55
2022-10-09T18:34:02.843Z,12.36
2022-10-09T18:36:33.636Z,12.20
2022-10-09T18:39:04.165Z,12.05
2022-10-09T18:41:32.375Z,11.94
2022-10-09T18:44:02.526Z,11.88
2022-10-09T18:46:35.035Z,11.90
2022-10-09T18:49:04.038Z,11.61
2022-10-09T18:51:32.283Z,11.48
2022-10-09T18:54:04.566Z,11.63
2022-10-09T18:56:34.394Z,11.60
2022-10-09T18:59:07.203Z,11.69
2022-10-09T19:01:35.142Z,11.63
2022-10-09T19:04:03.340Z,11.51
2022-10-09T19:06:31.453Z,11.47
2022-10-09T19:09:00.906Z,11.50
2022-10-09T19:11:29.676Z,11.47
2022-10-09T19:14:00.878Z,11.40
2022-10-09T19:16:31.900Z,11.42
2022-10-09T19:19:00.347Z,11.26
2022-10-09T19:21:29.553Z,11.15
2022-10-09T19:24:03.438Z,11.08
2022-10-09T19:26:32.743Z,11.05
2022-10-09T19:29:00.875Z,11.09
2022-10-09T19:31:32.391Z,10.99
2022-10-09T19:34:06.008Z,10.96
2022-10-09T19:36:36.606Z,10.93
2022-10-09T19:39:09.228Z,10.88
2022-10-09T19:41:39.879Z,10.77
2022-10-09T19:44:10.225Z,10.70
2022-10-09T19:46:41.258Z,10.73
2022-10-09T19:49:10.538Z,10.78
2022-10-09T19:51:39.813Z,10.73
2022-10-09T19:54:10.854Z,10.74
2022-10-09T19:56:40.481Z,10.53
2022-10-09T19:59:09.973Z,10.53
2022-10-09T20:01:40.325Z,10.53
2022-10-09T20:04:13.309Z,10.45
2022-10-09T20:06:43.415Z,10.53
2022-10-09T20:09:13.903Z,10.44
2022-10-09T20:11:42.733Z,10.35
2022-10-09T20:14:11.076Z,10.27
2022-10-09T20:16:40.520Z,10.35
2022-10-09T20:19:08.690Z,10.40
2022-10-09T20:21:38.917Z,10.36
2022-10-09T20:24:08.491Z,10.43
2022-10-09T20:26:40.923Z,10.44
2022-10-09T20:29:10.796Z,10.36
2022-10-09T20:31:40.708Z,10.32
2022-10-09T20:34:09.816Z,10.42
2022-10-09T20:36:39.163Z,10.44
2022-10-09T20:39:09.305Z,10.46
2022-10-09T20:41:38.583Z,10.59
2022-10-09T20:44:07.537Z,10.61
2022-10-09T20:46:41.948Z,10.66
2022-10-09T20:49:14.754Z,10.64
2022-10-09T20:51:43.775Z,10.58
2022-10-09T20:54:17.777Z,10.59
2022-10-09T20:56:46.699Z,10.55
2022-10-09T20:59:15.482Z,10.57
2022-10-09T21:01:44.792Z,10.67
2022-10-09T21:04:12.626Z,10.66
2022-10-09T21:06:40.906Z,10.62
2022-10-09T21:09:09.423Z,10.55
2022-10-09T21:11:38.894Z,10.63
2022-10-09T21:14:08.763Z,10.72
2022-10-09T21:16:36.545Z,10.70
2022-10-09T21:19:07.953Z,10.68
2022-10-09T21:21:35.761Z,10.57
2022-10-09T21:24:04.704Z,10.66
2022-10-09T21:26:35.596Z,10.61
2022-10-09T21:29:05.149Z,10.69
2022-10-09T21:31:34.072Z,10.75
2022-10-09T21:34:03.156Z,10.89
2022-10-09T21:36:41.128Z,10.89
2022-10-09T21:39:18.943Z,10.82
2022-10-09T21:41:46.900Z,10.76
2022-10-09T21:44:15.208Z,10.80
2022-10-09T21:46:46.414Z,10.87
2022-10-09T21:49:21.730Z,10.90
2022-10-09T21:51:52.023Z,10.89
2022-10-09T21:54:22.391Z,10.72
2022-10-09T21:56:50.623Z,10.70
2022-10-09T21:59:19.330Z,10.75
2022-10-09T22:01:47.398Z,10.85
2022-10-09T22:04:15.308Z,10.84
2022-10-09T22:06:43.839Z,10.86
2022-10-09T22:09:13.662Z,10.94
2022-10-09T22:11:44.448Z,10.98
2022-10-09T22:14:12.692Z,10.90
2022-10-09T22:16:41.123Z,11.02
2022-10-09T22:19:09.162Z,11.12
2022-10-09T22:21:38.041Z,10.88
2022-10-09T22:24:07.742Z,10.77
2022-10-09T22:26:37.627Z,10.51
2022-10-09T22:29:09.167Z,10.18
2022-10-09T22:31:37.393Z,10.00
2022-10-09T22:34:05.550Z,10.02
2022-10-09T22:36:35.531Z,10.15
2022-10-09T22:39:06.393Z,10.19
2022-10-09T22:41:36.246Z,10.50
2022-10-09T22:44:07.838Z,10.74
2022-10-09T22:46:38.583Z,10.92
2022-10-09T22:49:10.461Z,11.01
2022-10-09T22:51:39.973Z,11.05
2022-10-09T22:54:08.532Z,11.15
2022-10-09T22:56:38.980Z,11.20
2022-10-09T22:59:10.285Z,11.14
2022-10-09T23:01:41.544Z,11.00
2022-10-09T23:04:14.298Z,10.99
2022-10-09T23:06:44.048Z,10.89
2022-10-09T23:09:16.160Z,10.79
2022-10-09T23:11:44.753Z,10.78
2022-10-09T23:14:15.071Z,10.57
2022-10-09T23:16:43.469Z,10.59
2022-10-09T23:19:11.735Z,10.61
2022-10-09T23:21:41.861Z,10.56
2022-10-09T23:24:12.575Z,10.44
2022-10-09T23:26:40.638Z,10.27
2022-10-09T23:29:13.726Z,10.24
2022-10-09T23:31:43.651Z,10.05
2022-10-09T23:34:12.180Z,10.10
2022-10-09T23:36:40.352Z,10.07
2022-10-09T23:39:08.932Z,10.07
2022-10-09T23:41:36.979Z,10.16
2022-10-09T23:44:05.595Z,10.20
2022-10-09T23:46:34.567Z,10.15
2022-10-09T23:49:04.016Z,10.19
2022-10-09T23:51:32.394Z,10.21
2022-10-09T23:54:03.011Z,10.21
2022-10-09T23:56:33.142Z,10.16
2022-10-09T23:59:06.032Z,9.93
